Ellis Island, New Jersey
Current Conditions -  °F | °C
As of 1:51 PM on Thursday 30 Oct 2014 (Local Time) from KEWR Reporting Station
Scattered Clouds Scattered Clouds  
Wind Chill: 60°   Ceiling: Unl
Heat Index: 60°   Visibility: 10mi
Dew Point: 38°   Wind: 14mph
Humidity: 44%   Direction: 280°W
Pressure: 29.98"   Gusts: NA
Location:  40.696°N, 74.0853°W
Report Text: KEWR 301751Z 28012KT 10SM SCT046 16/03 A2998 RMK AO2 SLP151 T01560033 10161 20072 58008
Loading
Personal Weather Stations






























Interactive Weather Map
Tropical Storm Tracking
New forecast layout! Learn more

10-Day Weather Forecast

Advertisements
Track Severe Weather on mobile